UAE945 OMDB-ORMM
Flight info
| Callsign | UAE945 |
|---|---|
| Flight time | 1h 31m |
| Altitude | 34000 |
| Route | RIDAP M557 TUMAK L602 RALKA G795 BSR |
| Aircraft | B77W/H-SDE1E2E3FGHIJ2J3J4J5M1RWXY/LB1D1 |
Departure
| Time | 2026-04-25 13:57 |
|---|---|
| Airport | Dubai International Airport (OMDB) |
Arrival
| Time | 2026-04-25 15:28 |
|---|---|
| Airport | Basra International Airport (ORMM) |
| Time | Latitude | Longitude | Altitude | Speed | Heading |
|---|---|---|---|---|---|
| 2026-04-25 13:24 | 25.25368 | 55.35426 | 29 ft | 0 kts | 211° |
| 2026-04-25 13:40 | 25.25369 | 55.35427 | 4 ft | 1 kts | 211° |
| 2026-04-25 13:41 | 25.25384 | 55.35437 | 28 ft | 3 kts | 211° |
| 2026-04-25 13:41 | 25.25401 | 55.35449 | 32 ft | 3 kts | 211° |
| 2026-04-25 13:41 | 25.25418 | 55.35460 | 32 ft | 3 kts | 212° |
| 2026-04-25 13:41 | 25.25433 | 55.35473 | 32 ft | 3 kts | 233° |
| 2026-04-25 13:42 | 25.25442 | 55.35491 | 32 ft | 3 kts | 271° |
| 2026-04-25 13:42 | 25.25438 | 55.35511 | 30 ft | 3 kts | 298° |
| 2026-04-25 13:42 | 25.25430 | 55.35526 | 29 ft | 1 kts | 301° |
| 2026-04-25 13:42 | 25.25422 | 55.35540 | 32 ft | 3 kts | 301° |
| 2026-04-25 13:43 | 25.25411 | 55.35559 | 32 ft | 3 kts | 301° |
| 2026-04-25 13:43 | 25.25400 | 55.35578 | 32 ft | 3 kts | 302° |
| 2026-04-25 13:43 | 25.25390 | 55.35597 | 32 ft | 3 kts | 302° |
| 2026-04-25 13:46 | 25.25390 | 55.35596 | 32 ft | 1 kts | 302° |
| 2026-04-25 13:46 | 25.25416 | 55.35549 | 32 ft | 9 kts | 302° |
| 2026-04-25 13:46 | 25.25451 | 55.35487 | 32 ft | 11 kts | 302° |
| 2026-04-25 13:47 | 25.25491 | 55.35415 | 29 ft | 12 kts | 302° |
| 2026-04-25 13:47 | 25.25537 | 55.35335 | 29 ft | 13 kts | 302° |
| 2026-04-25 13:47 | 25.25589 | 55.35243 | 30 ft | 15 kts | 302° |
| 2026-04-25 13:47 | 25.25634 | 55.35163 | 30 ft | 9 kts | 307° |
| 2026-04-25 13:48 | 25.25690 | 55.35161 | 31 ft | 9 kts | 26° |
| 2026-04-25 13:48 | 25.25761 | 55.35209 | 29 ft | 14 kts | 31° |
| 2026-04-25 13:48 | 25.25846 | 55.35265 | 30 ft | 14 kts | 31° |
| 2026-04-25 13:48 | 25.25922 | 55.35317 | 30 ft | 10 kts | 31° |
| 2026-04-25 13:49 | 25.25966 | 55.35354 | 26 ft | 6 kts | 46° |
| 2026-04-25 13:49 | 25.25979 | 55.35371 | 26 ft | 3 kts | 55° |
| 2026-04-25 13:49 | 25.25996 | 55.35406 | 26 ft | 11 kts | 66° |
| 2026-04-25 13:49 | 25.26002 | 55.35517 | 27 ft | 15 kts | 105° |
| 2026-04-25 13:50 | 25.25952 | 55.35622 | 27 ft | 15 kts | 121° |
| 2026-04-25 13:50 | 25.25896 | 55.35723 | 26 ft | 15 kts | 122° |
| 2026-04-25 13:50 | 25.25839 | 55.35823 | 27 ft | 16 kts | 122° |
| 2026-04-25 13:50 | 25.25774 | 55.35938 | 27 ft | 20 kts | 121° |
| 2026-04-25 13:51 | 25.25697 | 55.36076 | 27 ft | 22 kts | 122° |
| 2026-04-25 13:51 | 25.25617 | 55.36216 | 28 ft | 22 kts | 122° |
| 2026-04-25 13:51 | 25.25538 | 55.36357 | 27 ft | 22 kts | 122° |
| 2026-04-25 13:51 | 25.25459 | 55.36496 | 27 ft | 22 kts | 122° |
| 2026-04-25 13:52 | 25.25380 | 55.36636 | 26 ft | 22 kts | 122° |
| 2026-04-25 13:52 | 25.25303 | 55.36776 | 27 ft | 21 kts | 122° |
| 2026-04-25 13:52 | 25.25225 | 55.36914 | 27 ft | 21 kts | 122° |
| 2026-04-25 13:52 | 25.25147 | 55.37052 | 28 ft | 21 kts | 121° |
| 2026-04-25 13:53 | 25.25069 | 55.37191 | 28 ft | 21 kts | 122° |
| 2026-04-25 13:53 | 25.24987 | 55.37338 | 28 ft | 23 kts | 122° |
| 2026-04-25 13:53 | 25.24903 | 55.37486 | 28 ft | 23 kts | 122° |
| 2026-04-25 13:53 | 25.24820 | 55.37634 | 28 ft | 23 kts | 122° |
| 2026-04-25 13:54 | 25.24737 | 55.37782 | 27 ft | 21 kts | 122° |
| 2026-04-25 13:54 | 25.24681 | 55.37880 | 27 ft | 10 kts | 122° |
| 2026-04-25 13:54 | 25.24664 | 55.37935 | 27 ft | 7 kts | 77° |
| 2026-04-25 13:54 | 25.24680 | 55.37960 | 28 ft | 3 kts | 46° |
| 2026-04-25 13:55 | 25.24712 | 55.37987 | 28 ft | 8 kts | 32° |
| 2026-04-25 13:55 | 25.24760 | 55.38020 | 30 ft | 8 kts | 32° |
| 2026-04-25 13:55 | 25.24810 | 55.38011 | 30 ft | 7 kts | 321° |
| 2026-04-25 13:55 | 25.24825 | 55.37991 | 30 ft | 3 kts | 303° |
| 2026-04-25 13:56 | 25.24826 | 55.37988 | 30 ft | 0 kts | 303° |
| 2026-04-25 13:56 | 25.24933 | 55.37799 | 30 ft | 68 kts | 301° |
| 2026-04-25 13:56 | 25.25326 | 55.37089 | 30 ft | 146 kts | 301° |
| 2026-04-25 13:57 | 25.25937 | 55.35983 | 361 ft | 175 kts | 302° |
| 2026-04-25 13:57 | 25.26356 | 55.35214 | 802 ft | 179 kts | 301° |
| 2026-04-25 13:57 | 25.27210 | 55.33596 | 1701 ft | 191 kts | 301° |
| 2026-04-25 13:57 | 25.27940 | 55.32258 | 2045 ft | 219 kts | 303° |
| 2026-04-25 13:58 | 25.28809 | 55.30741 | 2426 ft | 245 kts | 303° |
| 2026-04-25 13:58 | 25.29748 | 55.29112 | 3134 ft | 256 kts | 305° |
| 2026-04-25 13:58 | 25.30790 | 55.27469 | 3963 ft | 263 kts | 306° |
| 2026-04-25 13:58 | 25.31858 | 55.25815 | 4881 ft | 267 kts | 305° |
| 2026-04-25 13:59 | 25.32949 | 55.24119 | 5745 ft | 272 kts | 304° |
| 2026-04-25 13:59 | 25.34049 | 55.22401 | 6680 ft | 274 kts | 304° |
| 2026-04-25 13:59 | 25.35135 | 55.20685 | 7531 ft | 276 kts | 301° |
| 2026-04-25 13:59 | 25.35819 | 55.18699 | 8196 ft | 282 kts | 275° |
| 2026-04-25 14:00 | 25.35844 | 55.17243 | 8722 ft | 282 kts | 267° |
| 2026-04-25 14:00 | 25.35730 | 55.14344 | 9847 ft | 287 kts | 267° |
| 2026-04-25 14:00 | 25.35637 | 55.12114 | 10569 ft | 297 kts | 266° |
| 2026-04-25 14:00 | 25.35538 | 55.09730 | 10817 ft | 326 kts | 266° |
| 2026-04-25 14:01 | 25.35434 | 55.07119 | 11039 ft | 354 kts | 266° |
| 2026-04-25 14:01 | 25.35328 | 55.04339 | 11670 ft | 367 kts | 266° |
| 2026-04-25 14:01 | 25.35223 | 55.01481 | 12571 ft | 374 kts | 266° |
| 2026-04-25 14:01 | 25.35120 | 54.98650 | 13499 ft | 381 kts | 266° |
| 2026-04-25 14:02 | 25.35012 | 54.95694 | 14377 ft | 386 kts | 266° |
| 2026-04-25 14:02 | 25.34902 | 54.92720 | 15342 ft | 388 kts | 266° |
| 2026-04-25 14:02 | 25.35025 | 54.89776 | 16226 ft | 392 kts | 280° |
| 2026-04-25 14:02 | 25.35251 | 54.88791 | 16486 ft | 391 kts | 284° |
| 2026-04-25 14:03 | 25.36731 | 54.83963 | 17804 ft | 404 kts | 287° |
| 2026-04-25 14:03 | 25.37631 | 54.81005 | 18695 ft | 407 kts | 285° |
| 2026-04-25 14:03 | 25.38505 | 54.78029 | 19576 ft | 408 kts | 285° |
| 2026-04-25 14:03 | 25.39365 | 54.75032 | 20492 ft | 409 kts | 284° |
| 2026-04-25 14:04 | 25.40224 | 54.72019 | 21354 ft | 412 kts | 284° |
| 2026-04-25 14:04 | 25.41094 | 54.68983 | 22193 ft | 415 kts | 285° |
| 2026-04-25 14:04 | 25.41976 | 54.65932 | 22988 ft | 418 kts | 285° |
| 2026-04-25 14:04 | 25.42865 | 54.62859 | 23719 ft | 421 kts | 285° |
| 2026-04-25 14:05 | 25.43765 | 54.59757 | 24298 ft | 426 kts | 285° |
| 2026-04-25 14:05 | 25.44685 | 54.56622 | 24869 ft | 431 kts | 285° |
| 2026-04-25 14:05 | 25.45619 | 54.53450 | 25448 ft | 435 kts | 285° |
| 2026-04-25 14:05 | 25.46561 | 54.50255 | 26032 ft | 439 kts | 285° |
| 2026-04-25 14:06 | 25.47511 | 54.47029 | 26659 ft | 442 kts | 285° |
| 2026-04-25 14:06 | 25.48453 | 54.43820 | 27246 ft | 445 kts | 285° |
| 2026-04-25 14:06 | 25.49411 | 54.40549 | 27789 ft | 449 kts | 285° |
| 2026-04-25 14:06 | 25.50380 | 54.37240 | 28305 ft | 454 kts | 285° |
| 2026-04-25 14:07 | 25.51355 | 54.33904 | 28787 ft | 459 kts | 285° |
| 2026-04-25 14:07 | 25.52342 | 54.30527 | 29289 ft | 463 kts | 285° |
| 2026-04-25 14:07 | 25.53336 | 54.27120 | 29784 ft | 466 kts | 285° |
| 2026-04-25 14:07 | 25.54336 | 54.23696 | 30230 ft | 468 kts | 285° |
| 2026-04-25 14:08 | 25.55343 | 54.20282 | 30805 ft | 466 kts | 285° |
| 2026-04-25 14:08 | 25.56351 | 54.16883 | 31356 ft | 464 kts | 285° |
| 2026-04-25 14:08 | 25.57356 | 54.13494 | 31930 ft | 461 kts | 285° |
| 2026-04-25 14:08 | 25.58352 | 54.10125 | 32508 ft | 458 kts | 285° |
| 2026-04-25 14:09 | 25.59337 | 54.06785 | 33111 ft | 455 kts | 285° |
| 2026-04-25 14:09 | 25.60300 | 54.03458 | 33683 ft | 452 kts | 284° |
| 2026-04-25 14:09 | 25.61244 | 54.00130 | 33919 ft | 456 kts | 284° |
| 2026-04-25 14:10 | 25.63112 | 53.93505 | 33915 ft | 451 kts | 283° |
| 2026-04-25 14:10 | 25.64974 | 53.86916 | 33907 ft | 447 kts | 283° |
| 2026-04-25 14:11 | 25.66829 | 53.80346 | 33914 ft | 447 kts | 283° |
| 2026-04-25 14:11 | 25.68684 | 53.73774 | 33916 ft | 447 kts | 283° |
| 2026-04-25 14:12 | 25.70538 | 53.67185 | 33911 ft | 448 kts | 283° |
| 2026-04-25 14:12 | 25.72382 | 53.60611 | 33911 ft | 449 kts | 283° |
| 2026-04-25 14:13 | 25.74242 | 53.53973 | 33910 ft | 450 kts | 283° |
| 2026-04-25 14:13 | 25.76103 | 53.47341 | 33911 ft | 450 kts | 283° |
| 2026-04-25 14:14 | 25.77980 | 53.40707 | 33912 ft | 450 kts | 283° |
| 2026-04-25 14:14 | 25.79824 | 53.34188 | 33903 ft | 437 kts | 283° |
| 2026-04-25 14:15 | 25.81629 | 53.27765 | 33914 ft | 435 kts | 283° |
| 2026-04-25 14:15 | 25.83420 | 53.21387 | 33911 ft | 435 kts | 283° |
| 2026-04-25 14:16 | 25.85573 | 53.15072 | 33926 ft | 440 kts | 289° |
| 2026-04-25 14:16 | 25.88129 | 53.08870 | 33913 ft | 442 kts | 290° |
| 2026-04-25 14:17 | 25.90269 | 53.03659 | 33913 ft | 443 kts | 289° |
| 2026-04-25 14:17 | 25.92769 | 52.97510 | 33923 ft | 444 kts | 289° |
| 2026-04-25 14:18 | 25.95300 | 52.91257 | 33930 ft | 444 kts | 289° |
| 2026-04-25 14:18 | 25.97830 | 52.84993 | 33927 ft | 444 kts | 289° |
| 2026-04-25 14:19 | 26.00355 | 52.78737 | 33912 ft | 444 kts | 289° |
| 2026-04-25 14:19 | 26.02915 | 52.72485 | 33928 ft | 445 kts | 291° |
| 2026-04-25 14:20 | 26.05715 | 52.66343 | 33922 ft | 446 kts | 292° |
| 2026-04-25 14:20 | 26.08527 | 52.60201 | 33919 ft | 445 kts | 291° |
| 2026-04-25 14:21 | 26.11299 | 52.54036 | 33924 ft | 445 kts | 291° |
| 2026-04-25 14:21 | 26.14079 | 52.47883 | 33918 ft | 445 kts | 292° |
| 2026-04-25 14:22 | 26.16850 | 52.41776 | 33933 ft | 444 kts | 291° |
| 2026-04-25 14:22 | 26.19629 | 52.35633 | 33926 ft | 444 kts | 291° |
| 2026-04-25 14:23 | 26.22403 | 52.29479 | 33917 ft | 444 kts | 291° |
| 2026-04-25 14:23 | 26.25070 | 52.23341 | 33923 ft | 442 kts | 291° |
| 2026-04-25 14:24 | 26.27726 | 52.17167 | 33918 ft | 441 kts | 291° |
| 2026-04-25 14:24 | 26.30384 | 52.11012 | 33920 ft | 440 kts | 291° |
| 2026-04-25 14:25 | 26.33034 | 52.04867 | 33928 ft | 440 kts | 291° |
| 2026-04-25 14:25 | 26.35628 | 51.98791 | 33925 ft | 439 kts | 291° |
| 2026-04-25 14:26 | 26.38144 | 51.92593 | 33917 ft | 436 kts | 287° |
| 2026-04-25 14:26 | 26.40224 | 51.86257 | 33926 ft | 435 kts | 286° |
| 2026-04-25 14:27 | 26.42337 | 51.79926 | 33926 ft | 435 kts | 287° |
| 2026-04-25 14:27 | 26.44477 | 51.73616 | 33945 ft | 434 kts | 287° |
| 2026-04-25 14:28 | 26.46594 | 51.67344 | 33932 ft | 434 kts | 287° |
| 2026-04-25 14:28 | 26.48733 | 51.61034 | 33926 ft | 434 kts | 287° |
| 2026-04-25 14:29 | 26.50833 | 51.54706 | 33934 ft | 432 kts | 287° |
| 2026-04-25 14:29 | 26.52915 | 51.48416 | 33927 ft | 430 kts | 287° |
| 2026-04-25 14:30 | 26.54984 | 51.42162 | 33926 ft | 428 kts | 287° |
| 2026-04-25 14:30 | 26.58076 | 51.32812 | 33955 ft | 427 kts | 287° |
| 2026-04-25 14:31 | 26.60112 | 51.26643 | 33939 ft | 425 kts | 287° |
| 2026-04-25 14:31 | 26.62161 | 51.20446 | 33938 ft | 424 kts | 287° |
| 2026-04-25 14:32 | 26.64201 | 51.14269 | 33938 ft | 423 kts | 287° |
| 2026-04-25 14:32 | 26.66236 | 51.08089 | 33948 ft | 423 kts | 287° |
| 2026-04-25 14:33 | 26.68269 | 51.01909 | 33945 ft | 424 kts | 287° |
| 2026-04-25 14:33 | 26.70253 | 50.95789 | 33943 ft | 424 kts | 286° |
| 2026-04-25 14:34 | 26.72233 | 50.89602 | 33946 ft | 424 kts | 286° |
| 2026-04-25 14:34 | 26.74221 | 50.83390 | 33951 ft | 424 kts | 286° |
| 2026-04-25 14:35 | 26.76211 | 50.77172 | 33950 ft | 424 kts | 286° |
| 2026-04-25 14:35 | 26.78198 | 50.70959 | 33950 ft | 424 kts | 287° |
| 2026-04-25 14:36 | 26.80795 | 50.64993 | 33968 ft | 429 kts | 295° |
| 2026-04-25 14:36 | 26.84175 | 50.59450 | 33957 ft | 434 kts | 303° |
| 2026-04-25 14:37 | 26.88011 | 50.54284 | 33953 ft | 433 kts | 304° |
| 2026-04-25 14:37 | 26.91841 | 50.49081 | 33954 ft | 432 kts | 304° |
| 2026-04-25 14:38 | 26.95939 | 50.44116 | 33957 ft | 434 kts | 307° |
| 2026-04-25 14:38 | 27.00095 | 50.39228 | 33973 ft | 433 kts | 307° |
| 2026-04-25 14:39 | 27.04221 | 50.34318 | 33961 ft | 431 kts | 307° |
| 2026-04-25 14:39 | 27.08317 | 50.29397 | 33960 ft | 430 kts | 307° |
| 2026-04-25 14:40 | 27.12389 | 50.24481 | 33960 ft | 429 kts | 307° |
| 2026-04-25 14:40 | 27.16589 | 50.19686 | 33956 ft | 434 kts | 311° |
| 2026-04-25 14:41 | 27.21417 | 50.15536 | 33964 ft | 438 kts | 316° |
| 2026-04-25 14:41 | 27.26313 | 50.11534 | 33960 ft | 437 kts | 316° |
| 2026-04-25 14:42 | 27.30420 | 50.08139 | 33963 ft | 437 kts | 316° |
| 2026-04-25 14:42 | 27.36101 | 50.03419 | 33961 ft | 436 kts | 316° |
| 2026-04-25 14:43 | 27.40855 | 49.99308 | 33962 ft | 435 kts | 314° |
| 2026-04-25 14:43 | 27.45610 | 49.95098 | 33964 ft | 434 kts | 314° |
| 2026-04-25 14:44 | 27.50366 | 49.90897 | 33982 ft | 435 kts | 314° |
| 2026-04-25 14:44 | 27.55143 | 49.86690 | 33968 ft | 435 kts | 314° |
| 2026-04-25 14:45 | 27.59876 | 49.82523 | 33963 ft | 435 kts | 314° |
| 2026-04-25 14:45 | 27.64640 | 49.78323 | 33964 ft | 434 kts | 314° |
| 2026-04-25 14:46 | 27.69404 | 49.74116 | 33980 ft | 434 kts | 314° |
| 2026-04-25 14:46 | 27.74161 | 49.69911 | 33966 ft | 434 kts | 314° |
| 2026-04-25 14:47 | 27.78111 | 49.66416 | 33967 ft | 434 kts | 314° |
| 2026-04-25 14:47 | 27.83620 | 49.61503 | 33967 ft | 433 kts | 313° |
| 2026-04-25 14:48 | 27.88345 | 49.57272 | 33965 ft | 434 kts | 313° |
| 2026-04-25 14:48 | 27.93076 | 49.53035 | 33964 ft | 434 kts | 313° |
| 2026-04-25 14:49 | 27.97803 | 49.48797 | 33967 ft | 433 kts | 313° |
| 2026-04-25 14:49 | 28.02523 | 49.44562 | 33980 ft | 434 kts | 313° |
| 2026-04-25 14:50 | 28.07234 | 49.40292 | 33971 ft | 434 kts | 312° |
| 2026-04-25 14:50 | 28.11934 | 49.36001 | 33966 ft | 434 kts | 312° |
| 2026-04-25 14:51 | 28.16635 | 49.31709 | 33965 ft | 434 kts | 312° |
| 2026-04-25 14:51 | 28.21345 | 49.27407 | 33966 ft | 435 kts | 312° |
| 2026-04-25 14:52 | 28.26061 | 49.23096 | 33966 ft | 435 kts | 312° |
| 2026-04-25 14:52 | 28.29972 | 49.19502 | 33969 ft | 435 kts | 311° |
| 2026-04-25 14:53 | 28.35432 | 49.14455 | 33983 ft | 436 kts | 311° |
| 2026-04-25 14:53 | 28.40182 | 49.10132 | 33968 ft | 441 kts | 315° |
| 2026-04-25 14:54 | 28.45296 | 49.06185 | 33969 ft | 445 kts | 316° |
| 2026-04-25 14:54 | 28.50452 | 49.02288 | 33967 ft | 445 kts | 316° |
| 2026-04-25 14:55 | 28.55541 | 48.98411 | 33974 ft | 445 kts | 316° |
| 2026-04-25 14:55 | 28.60684 | 48.94469 | 33967 ft | 446 kts | 316° |
| 2026-04-25 14:56 | 28.65790 | 48.90547 | 33963 ft | 446 kts | 316° |
| 2026-04-25 14:56 | 28.70931 | 48.86594 | 33985 ft | 447 kts | 316° |
| 2026-04-25 14:57 | 28.76103 | 48.82611 | 33972 ft | 449 kts | 316° |
| 2026-04-25 14:57 | 28.81293 | 48.78614 | 33969 ft | 451 kts | 316° |
| 2026-04-25 14:58 | 28.86515 | 48.74608 | 33964 ft | 451 kts | 316° |
| 2026-04-25 14:58 | 28.91743 | 48.70596 | 33965 ft | 454 kts | 317° |
| 2026-04-25 14:59 | 28.96994 | 48.66560 | 33965 ft | 456 kts | 317° |
| 2026-04-25 14:59 | 29.02247 | 48.62521 | 33492 ft | 455 kts | 316° |
| 2026-04-25 15:00 | 29.04828 | 48.60534 | 32971 ft | 450 kts | 316° |
| 2026-04-25 15:00 | 29.07413 | 48.58545 | 32475 ft | 445 kts | 317° |
| 2026-04-25 15:00 | 29.09970 | 48.56575 | 31958 ft | 440 kts | 317° |
| 2026-04-25 15:00 | 29.12498 | 48.54625 | 31462 ft | 435 kts | 317° |
| 2026-04-25 15:01 | 29.14992 | 48.52699 | 30976 ft | 430 kts | 317° |
| 2026-04-25 15:01 | 29.17468 | 48.50784 | 30493 ft | 426 kts | 317° |
| 2026-04-25 15:01 | 29.19912 | 48.48893 | 30008 ft | 422 kts | 317° |
| 2026-04-25 15:01 | 29.22331 | 48.47019 | 29451 ft | 418 kts | 317° |
| 2026-04-25 15:02 | 29.24730 | 48.45161 | 28910 ft | 414 kts | 317° |
| 2026-04-25 15:02 | 29.27099 | 48.43326 | 28399 ft | 409 kts | 317° |
| 2026-04-25 15:02 | 29.29442 | 48.41509 | 27912 ft | 405 kts | 317° |
| 2026-04-25 15:02 | 29.31761 | 48.39709 | 27423 ft | 401 kts | 317° |
| 2026-04-25 15:03 | 29.34059 | 48.37924 | 26940 ft | 397 kts | 317° |
| 2026-04-25 15:03 | 29.36334 | 48.36155 | 26460 ft | 394 kts | 317° |
| 2026-04-25 15:03 | 29.37833 | 48.34990 | 26150 ft | 392 kts | 317° |
| 2026-04-25 15:03 | 29.40841 | 48.32651 | 25516 ft | 389 kts | 317° |
| 2026-04-25 15:04 | 29.42321 | 48.31500 | 25196 ft | 387 kts | 317° |
| 2026-04-25 15:04 | 29.44581 | 48.29823 | 24710 ft | 388 kts | 321° |
| 2026-04-25 15:04 | 29.46908 | 48.28262 | 24234 ft | 387 kts | 322° |
| 2026-04-25 15:04 | 29.50013 | 48.26240 | 23599 ft | 386 kts | 322° |
| 2026-04-25 15:05 | 29.51596 | 48.25214 | 23231 ft | 385 kts | 322° |
| 2026-04-25 15:05 | 29.53922 | 48.23703 | 22710 ft | 383 kts | 323° |
| 2026-04-25 15:05 | 29.56229 | 48.22199 | 22223 ft | 380 kts | 323° |
| 2026-04-25 15:06 | 29.60786 | 48.19211 | 21273 ft | 373 kts | 324° |
| 2026-04-25 15:06 | 29.63032 | 48.17734 | 20807 ft | 371 kts | 324° |
| 2026-04-25 15:06 | 29.65261 | 48.16265 | 20347 ft | 368 kts | 324° |
| 2026-04-25 15:06 | 29.67473 | 48.14805 | 19892 ft | 365 kts | 324° |
| 2026-04-25 15:07 | 29.69643 | 48.13373 | 19443 ft | 363 kts | 325° |
| 2026-04-25 15:07 | 29.71833 | 48.11926 | 19005 ft | 361 kts | 326° |
| 2026-04-25 15:07 | 29.74006 | 48.10491 | 18539 ft | 360 kts | 326° |
| 2026-04-25 15:07 | 29.76173 | 48.09059 | 18053 ft | 358 kts | 326° |
| 2026-04-25 15:08 | 29.78328 | 48.07634 | 17563 ft | 356 kts | 326° |
| 2026-04-25 15:08 | 29.80470 | 48.06218 | 17087 ft | 353 kts | 326° |
| 2026-04-25 15:08 | 29.82569 | 48.04831 | 16641 ft | 344 kts | 326° |
| 2026-04-25 15:08 | 29.84637 | 48.03462 | 16217 ft | 342 kts | 326° |
| 2026-04-25 15:09 | 29.86692 | 48.02100 | 15793 ft | 340 kts | 326° |
| 2026-04-25 15:09 | 29.88736 | 48.00744 | 15365 ft | 338 kts | 326° |
| 2026-04-25 15:09 | 29.92745 | 47.98084 | 14540 ft | 335 kts | 326° |
| 2026-04-25 15:10 | 29.94758 | 47.96747 | 14128 ft | 333 kts | 326° |
| 2026-04-25 15:10 | 29.96768 | 47.95412 | 13709 ft | 332 kts | 326° |
| 2026-04-25 15:10 | 30.00723 | 47.92785 | 12839 ft | 329 kts | 326° |
| 2026-04-25 15:11 | 30.02727 | 47.91516 | 12417 ft | 328 kts | 331° |
| 2026-04-25 15:11 | 30.04829 | 47.90469 | 12012 ft | 328 kts | 335° |
| 2026-04-25 15:11 | 30.06950 | 47.89525 | 11608 ft | 326 kts | 336° |
| 2026-04-25 15:12 | 30.11179 | 47.87671 | 10878 ft | 320 kts | 336° |
| 2026-04-25 15:12 | 30.13217 | 47.86760 | 10795 ft | 308 kts | 336° |
| 2026-04-25 15:12 | 30.15171 | 47.85878 | 10739 ft | 296 kts | 335° |
| 2026-04-25 15:12 | 30.16429 | 47.85306 | 10622 ft | 291 kts | 335° |
| 2026-04-25 15:13 | 30.18959 | 47.84150 | 10147 ft | 291 kts | 336° |
| 2026-04-25 15:13 | 30.22618 | 47.82477 | 9934 ft | 271 kts | 336° |
| 2026-04-25 15:13 | 30.24328 | 47.81695 | 9919 ft | 258 kts | 335° |
| 2026-04-25 15:14 | 30.25981 | 47.80937 | 9920 ft | 258 kts | 335° |
| 2026-04-25 15:14 | 30.27722 | 47.80134 | 9666 ft | 284 kts | 335° |
| 2026-04-25 15:14 | 30.29590 | 47.79296 | 9272 ft | 290 kts | 340° |
| 2026-04-25 15:14 | 30.31644 | 47.79098 | 8613 ft | 306 kts | 8° |
| 2026-04-25 15:15 | 30.33601 | 47.80069 | 8234 ft | 309 kts | 37° |
| 2026-04-25 15:15 | 30.34957 | 47.81935 | 8070 ft | 301 kts | 64° |
| 2026-04-25 15:15 | 30.35442 | 47.84229 | 7881 ft | 291 kts | 92° |
| 2026-04-25 15:15 | 30.35019 | 47.86464 | 7673 ft | 282 kts | 117° |
| 2026-04-25 15:16 | 30.33947 | 47.88276 | 7418 ft | 272 kts | 135° |
| 2026-04-25 15:16 | 30.32878 | 47.90105 | 6910 ft | 277 kts | 109° |
| 2026-04-25 15:16 | 30.33469 | 47.94339 | 6301 ft | 279 kts | 53° |
| 2026-04-25 15:17 | 30.36802 | 47.96235 | 5685 ft | 273 kts | 355° |
| 2026-04-25 15:17 | 30.38608 | 47.95693 | 5360 ft | 267 kts | 329° |
| 2026-04-25 15:17 | 30.39940 | 47.94287 | 4983 ft | 258 kts | 297° |
| 2026-04-25 15:18 | 30.40655 | 47.92405 | 4766 ft | 251 kts | 288° |
| 2026-04-25 15:18 | 30.41771 | 47.88770 | 4570 ft | 226 kts | 288° |
| 2026-04-25 15:18 | 30.42308 | 47.87104 | 4462 ft | 214 kts | 289° |
| 2026-04-25 15:19 | 30.42829 | 47.85535 | 4347 ft | 203 kts | 289° |
| 2026-04-25 15:19 | 30.43163 | 47.84552 | 4320 ft | 192 kts | 289° |
| 2026-04-25 15:19 | 30.43793 | 47.82707 | 4282 ft | 179 kts | 289° |
| 2026-04-25 15:19 | 30.44253 | 47.81368 | 4282 ft | 179 kts | 289° |
| 2026-04-25 15:20 | 30.44710 | 47.80014 | 4320 ft | 181 kts | 287° |
| 2026-04-25 15:20 | 30.45005 | 47.78602 | 4330 ft | 179 kts | 271° |
| 2026-04-25 15:20 | 30.44706 | 47.77262 | 4306 ft | 173 kts | 228° |
| 2026-04-25 15:20 | 30.43639 | 47.76759 | 4304 ft | 176 kts | 173° |
| 2026-04-25 15:21 | 30.42584 | 47.77490 | 4333 ft | 188 kts | 134° |
| 2026-04-25 15:21 | 30.41734 | 47.78671 | 4370 ft | 192 kts | 133° |
| 2026-04-25 15:21 | 30.40879 | 47.79855 | 4358 ft | 191 kts | 133° |
| 2026-04-25 15:21 | 30.40012 | 47.81027 | 4353 ft | 191 kts | 134° |
| 2026-04-25 15:22 | 30.39134 | 47.82178 | 4328 ft | 190 kts | 135° |
| 2026-04-25 15:22 | 30.38246 | 47.83306 | 4307 ft | 188 kts | 135° |
| 2026-04-25 15:22 | 30.37569 | 47.84642 | 3884 ft | 203 kts | 99° |
| 2026-04-25 15:22 | 30.37915 | 47.86139 | 3645 ft | 192 kts | 49° |
| 2026-04-25 15:23 | 30.38997 | 47.86834 | 3515 ft | 175 kts | 7° |
| 2026-04-25 15:23 | 30.40250 | 47.86773 | 3496 ft | 189 kts | 341° |
| 2026-04-25 15:23 | 30.41326 | 47.85924 | 3379 ft | 188 kts | 302° |
| 2026-04-25 15:23 | 30.41948 | 47.84615 | 3316 ft | 185 kts | 296° |
| 2026-04-25 15:24 | 30.42578 | 47.83295 | 3232 ft | 189 kts | 297° |
| 2026-04-25 15:24 | 30.43218 | 47.81959 | 3095 ft | 191 kts | 297° |
| 2026-04-25 15:24 | 30.43850 | 47.80633 | 2881 ft | 190 kts | 298° |
| 2026-04-25 15:24 | 30.44282 | 47.79726 | 2741 ft | 189 kts | 297° |
| 2026-04-25 15:25 | 30.45135 | 47.77932 | 2427 ft | 194 kts | 298° |
| 2026-04-25 15:25 | 30.45787 | 47.76561 | 2181 ft | 194 kts | 299° |
| 2026-04-25 15:25 | 30.46437 | 47.75202 | 1926 ft | 191 kts | 302° |
| 2026-04-25 15:25 | 30.47315 | 47.74097 | 1666 ft | 181 kts | 322° |
| 2026-04-25 15:26 | 30.48237 | 47.73172 | 1421 ft | 168 kts | 318° |
| 2026-04-25 15:26 | 30.49099 | 47.72261 | 1237 ft | 170 kts | 318° |
| 2026-04-25 15:26 | 30.49968 | 47.71352 | 977 ft | 164 kts | 321° |
| 2026-04-25 15:26 | 30.50797 | 47.70489 | 744 ft | 161 kts | 319° |
| 2026-04-25 15:27 | 30.51640 | 47.69614 | 584 ft | 164 kts | 318° |
| 2026-04-25 15:27 | 30.52472 | 47.68756 | 435 ft | 153 kts | 317° |
| 2026-04-25 15:27 | 30.54029 | 47.67116 | 30 ft | 143 kts | 320° |
| 2026-04-25 15:28 | 30.54707 | 47.66420 | 28 ft | 117 kts | 318° |
| 2026-04-25 15:28 | 30.55197 | 47.65908 | 32 ft | 50 kts | 318° |
| 2026-04-25 15:28 | 30.55328 | 47.65798 | 30 ft | 14 kts | 7° |
| 2026-04-25 15:28 | 30.55380 | 47.65850 | 27 ft | 11 kts | 48° |
| 2026-04-25 15:29 | 30.55433 | 47.65916 | 26 ft | 7 kts | 47° |
| 2026-04-25 15:29 | 30.55440 | 47.65971 | 28 ft | 8 kts | 113° |
| 2026-04-25 15:29 | 30.55404 | 47.66018 | 27 ft | 8 kts | 136° |
| 2026-04-25 15:29 | 30.55360 | 47.66067 | 27 ft | 10 kts | 137° |
| 2026-04-25 15:30 | 30.55323 | 47.66106 | 27 ft | 11 kts | 137° |
| 2026-04-25 15:30 | 30.55294 | 47.66184 | 25 ft | 8 kts | 65° |
| 2026-04-25 15:30 | 30.55334 | 47.66240 | 27 ft | 10 kts | 48° |
| 2026-04-25 15:30 | 30.55382 | 47.66301 | 27 ft | 11 kts | 47° |
| 2026-04-25 15:31 | 30.55422 | 47.66356 | 27 ft | 6 kts | 65° |
| 2026-04-25 15:31 | 30.55407 | 47.66407 | 29 ft | 9 kts | 128° |
| 2026-04-25 15:31 | 30.55361 | 47.66459 | 27 ft | 9 kts | 138° |
| 2026-04-25 15:31 | 30.55314 | 47.66509 | 28 ft | 9 kts | 138° |
| 2026-04-25 15:32 | 30.55280 | 47.66552 | 28 ft | 4 kts | 123° |
| 2026-04-25 15:32 | 30.55251 | 47.66578 | 27 ft | 9 kts | 144° |
| 2026-04-25 15:32 | 30.55208 | 47.66621 | 27 ft | 7 kts | 135° |
| 2026-04-25 15:33 | 30.55230 | 47.66707 | 26 ft | 3 kts | 46° |
| 2026-04-25 15:33 | 30.55239 | 47.66718 | 27 ft | 0 kts | 47° |